Svinoy — V7RM5 — position and weather

sailwx.info

Track history (hours):
 
Tides and Currents Weather Stations Pressure Air Temp Water Temp Dewpoint Dewpoint Depression Visibility Wind Speed Wind Dir Waves Ship Positions

Svinoy

Last reported at 2015-Aug-05 06:22 UTC. Time now 2015-Aug-05 08:29 UTC.
Position N 31°60' E 120°50'.

Length 190 m; draft 6.4 m.

Type: Cargo ship. MMSI: 538003541.

Date/timePositionNaut miles runAvg speedWind from/ knotsBaromVisibWave heightAir tempDewpointWater temp
2015-Aug-05 06:22N 31°60' E 120°50'0 0.0
2015-Aug-05 05:18N 31°60' E 120°50'0 0.0
2015-Aug-05 04:31N 31°60' E 120°50'0 0.0
2015-Aug-05 03:33N 31°60' E 120°50'0 0.0
2015-Aug-05 02:33N 31°60' E 120°50'0 0.0
2015-Aug-05 01:33N 31°60' E 120°50'0 0.0
2015-Aug-05 00:30N 31°60' E 120°50'0 0.0
2015-Aug-04 23:15N 31°60' E 120°50'0 0.1
2015-Aug-04 22:31N 31°60' E 120°50'0 0.1
2015-Aug-04 21:33N 31°60' E 120°50'0 0.0
2015-Aug-04 20:33N 31°60' E 120°50'0 0.0
2015-Aug-04 19:30N 31°60' E 120°50'0 0.0
2015-Aug-04 18:33N 31°60' E 120°50'0 0.0
2015-Aug-04 17:33N 31°60' E 120°50'0 0.0
2015-Aug-04 16:33N 31°60' E 120°50'0 0.0
2015-Aug-04 15:24N 31°60' E 120°50'0 0.0
2015-Aug-04 13:28N 31°60' E 120°50'0 0.0
2015-Aug-04 12:33N 31°60' E 120°50'0 0.0
2015-Aug-04 11:33N 31°60' E 120°50'0 0.0
2015-Aug-04 10:33N 31°60' E 120°50'0 0.0
2015-Aug-04 09:15N 31°60' E 120°50'0 0.0
2015-Aug-04 08:27N 31°60' E 120°50'0 0.0
2015-Aug-04 07:33N 31°60' E 120°50'0 0.0
2015-Aug-04 05:09N 31°60' E 120°50'0 0.0
2015-Aug-04 04:31N 31°60' E 120°50'0 0.0
2015-Aug-04 03:30N 31°60' E 120°50'0 0.0
2015-Aug-04 02:33N 31°60' E 120°50'0 0.0
2015-Aug-04 01:15N 31°60' E 120°50'0 0.0
2015-Aug-04 00:21N 31°60' E 120°50'0 0.0
2015-Aug-03 23:30N 31°60' E 120°50'0 0.0
2015-Aug-03 22:30N 31°60' E 120°50'0 0.0
2015-Aug-03 21:33N 31°60' E 120°50'0 0.0
2015-Aug-03 20:33N 31°60' E 120°50'0 0.0
2015-Aug-03 19:27N 31°60' E 120°50'0 0.0
2015-Aug-03 18:33N 31°60' E 120°50'0 0.0
2015-Aug-03 17:33N 31°60' E 120°50'0 0.0
2015-Aug-03 16:33N 31°60' E 120°50'0 0.0
2015-Aug-03 15:30N 31°60' E 120°50'0 0.0
2015-Aug-03 14:33N 31°60' E 120°50'0 0.0
2015-Aug-03 13:10N 31°60' E 120°50'0 0.0
2015-Aug-03 11:06N 31°60' E 120°50'0 0.0
2015-Aug-03 10:27N 31°60' E 120°50'0 0.0
2015-Aug-03 09:21N 31°60' E 120°50'0 0.0
2015-Aug-03 04:33N 31°60' E 120°50'1 0.7
2015-Aug-03 03:33N 31°59' E 120°50'0 0.0
2015-Aug-03 02:33N 31°59' E 120°50'0 0.0
2015-Aug-03 01:33N 31°59' E 120°50'0 0.0
2015-Aug-03 00:33N 31°59' E 120°50'0 0.0
2015-Aug-02 23:33N 31°59' E 120°50'0 0.1
2015-Aug-02 21:18N 31°59' E 120°49'0 0.0
2015-Aug-02 20:33N 31°59' E 120°49'0 0.0
2015-Aug-02 19:33N 31°59' E 120°49'0 0.0
2015-Aug-02 18:33N 31°59' E 120°49'0 0.2
2015-Aug-02 17:33N 31°59' E 120°50'0 0.0
2015-Aug-02 16:33N 31°59' E 120°50'0 0.0
2015-Aug-02 15:12N 31°59' E 120°50'0 0.0
2015-Aug-02 14:26N 31°59' E 120°50'0 0.0
2015-Aug-02 13:14N 31°59' E 120°50'1 0.7
2015-Aug-02 11:32N 31°59' E 120°51'8 8.4
2015-Aug-02 10:33N 31°51' E 120°54'9 8.8
2015-Aug-02 09:33N 31°46' E 121°03'1111.0
2015-Aug-02 08:33N 31°39' E 121°13'1211.7
2015-Aug-02 07:33N 31°31' E 121°23'10 9.9
2015-Aug-02 06:33N 31°25' E 121°32'10 9.4
2015-Aug-02 05:33N 31°20' E 121°41'9 9.2
2015-Aug-02 04:33N 31°13' E 121°48'1211.8
2015-Aug-02 03:33N 31°06' E 121°59'1211.8
2015-Aug-02 02:33N 31°03' E 122°13'9 8.9
2015-Aug-02 01:34N 31°02' E 122°23'8 7.8
2015-Aug-02 00:33N 30°60' E 122°32'8 8.4
2015-Aug-01 23:34N 30°58' E 122°41'9 9.2
2015-Aug-01 22:33N 30°57' E 122°52'8 8.0
2015-Aug-01 21:33N 30°59' E 123°01'1 1.1
2015-Aug-01 20:33N 30°60' E 123°01'1 0.9
2015-Aug-01 19:33N 31°00' E 122°60'1 0.9
2015-Aug-01 18:33N 31°00' E 122°59'5 4.7
2015-Aug-01 17:33N 30°56' E 122°57'1212.1
2015-Aug-01 16:33N 30°44' E 122°58'1312.9
2015-Aug-01 15:33N 30°31' E 123°03'1312.8
2015-Aug-01 14:33N 30°19' E 123°04'1413.2
2015-Aug-01 13:32N 30°05' E 123°08'1412.5
2015-Aug-01 12:26N 29°52' E 123°05'1312.1
2015-Aug-01 11:23N 29°40' E 123°02'1011.4
2015-Aug-01 10:32N 29°31' E 122°58'1511.2
2015-Aug-01 09:12N 29°16' E 122°56'4311.6
2015-Aug-01 05:29N 28°35' E 122°41'21812.0
2015-Jul-31 11:17N 25°28' E 120°34'2412.7
2015-Jul-31 09:26N 25°12' E 120°15'1414.0
2015-Jul-31 08:27N 25°02' E 120°04'1314.1
2015-Jul-31 07:32N 24°54' E 119°53'1313.5
2015-Jul-31 06:32N 24°44' E 119°43'1312.9
2015-Jul-31 05:32N 24°36' E 119°32'1212.2
2015-Jul-31 04:33N 24°27' E 119°22'1411.8
2015-Jul-31 03:23N 24°18' E 119°11'4912.6
2015-Jul-30 23:31N 23°46' E 118°30'  
2015-Jul-28 12:27N 21°35' E 108°20'  
Track history (hours):
 
Tides and Currents Weather Stations Pressure Air Temp Water Temp Dewpoint Dewpoint Depression Visibility Wind Speed Wind Dir Waves Ship Positions

Svinoy

Last reported at 2015-Aug-05 06:22 UTC. Time now 2015-Aug-05 08:29 UTC.
Position N 31°60' E 120°50'.

Length 190 m; draft 6.4 m.

Type: Cargo ship. MMSI: 538003541.

Date/timePositionNaut miles runAvg speedWind from/ knotsBaromVisibWave heightAir tempDewpointWater temp
2015-Aug-05 06:22N 31°60' E 120°50'0 0.0
2015-Aug-05 05:18N 31°60' E 120°50'0 0.0
2015-Aug-05 04:31N 31°60' E 120°50'0 0.0
2015-Aug-05 03:33N 31°60' E 120°50'0 0.0
2015-Aug-05 02:33N 31°60' E 120°50'0 0.0
2015-Aug-05 01:33N 31°60' E 120°50'0 0.0
2015-Aug-05 00:30N 31°60' E 120°50'0 0.0
2015-Aug-04 23:15N 31°60' E 120°50'0 0.1
2015-Aug-04 22:31N 31°60' E 120°50'0 0.1
2015-Aug-04 21:33N 31°60' E 120°50'0 0.0
2015-Aug-04 20:33N 31°60' E 120°50'0 0.0
2015-Aug-04 19:30N 31°60' E 120°50'0 0.0
2015-Aug-04 18:33N 31°60' E 120°50'0 0.0
2015-Aug-04 17:33N 31°60' E 120°50'0 0.0
2015-Aug-04 16:33N 31°60' E 120°50'0 0.0
2015-Aug-04 15:24N 31°60' E 120°50'0 0.0
2015-Aug-04 13:28N 31°60' E 120°50'0 0.0
2015-Aug-04 12:33N 31°60' E 120°50'0 0.0
2015-Aug-04 11:33N 31°60' E 120°50'0 0.0
2015-Aug-04 10:33N 31°60' E 120°50'0 0.0
2015-Aug-04 09:15N 31°60' E 120°50'0 0.0
2015-Aug-04 08:27N 31°60' E 120°50'0 0.0
2015-Aug-04 07:33N 31°60' E 120°50'0 0.0
2015-Aug-04 05:09N 31°60' E 120°50'0 0.0
2015-Aug-04 04:31N 31°60' E 120°50'0 0.0
2015-Aug-04 03:30N 31°60' E 120°50'0 0.0
2015-Aug-04 02:33N 31°60' E 120°50'0 0.0
2015-Aug-04 01:15N 31°60' E 120°50'0 0.0
2015-Aug-04 00:21N 31°60' E 120°50'0 0.0
2015-Aug-03 23:30N 31°60' E 120°50'0 0.0
2015-Aug-03 22:30N 31°60' E 120°50'0 0.0
2015-Aug-03 21:33N 31°60' E 120°50'0 0.0
2015-Aug-03 20:33N 31°60' E 120°50'0 0.0
2015-Aug-03 19:27N 31°60' E 120°50'0 0.0
2015-Aug-03 18:33N 31°60' E 120°50'0 0.0
2015-Aug-03 17:33N 31°60' E 120°50'0 0.0
2015-Aug-03 16:33N 31°60' E 120°50'0 0.0
2015-Aug-03 15:30N 31°60' E 120°50'0 0.0
2015-Aug-03 14:33N 31°60' E 120°50'0 0.0
2015-Aug-03 13:10N 31°60' E 120°50'0 0.0
2015-Aug-03 11:06N 31°60' E 120°50'0 0.0
2015-Aug-03 10:27N 31°60' E 120°50'0 0.0
2015-Aug-03 09:21N 31°60' E 120°50'0 0.0
2015-Aug-03 04:33N 31°60' E 120°50'1 0.7
2015-Aug-03 03:33N 31°59' E 120°50'0 0.0
2015-Aug-03 02:33N 31°59' E 120°50'0 0.0
2015-Aug-03 01:33N 31°59' E 120°50'0 0.0
2015-Aug-03 00:33N 31°59' E 120°50'0 0.0
2015-Aug-02 23:33N 31°59' E 120°50'0 0.1
2015-Aug-02 21:18N 31°59' E 120°49'0 0.0
2015-Aug-02 20:33N 31°59' E 120°49'0 0.0
2015-Aug-02 19:33N 31°59' E 120°49'0 0.0
2015-Aug-02 18:33N 31°59' E 120°49'0 0.2
2015-Aug-02 17:33N 31°59' E 120°50'0 0.0
2015-Aug-02 16:33N 31°59' E 120°50'0 0.0
2015-Aug-02 15:12N 31°59' E 120°50'0 0.0
2015-Aug-02 14:26N 31°59' E 120°50'0 0.0
2015-Aug-02 13:14N 31°59' E 120°50'1 0.7
2015-Aug-02 11:32N 31°59' E 120°51'8 8.4
2015-Aug-02 10:33N 31°51' E 120°54'9 8.8
2015-Aug-02 09:33N 31°46' E 121°03'1111.0
2015-Aug-02 08:33N 31°39' E 121°13'1211.7
2015-Aug-02 07:33N 31°31' E 121°23'10 9.9
2015-Aug-02 06:33N 31°25' E 121°32'10 9.4
2015-Aug-02 05:33N 31°20' E 121°41'9 9.2
2015-Aug-02 04:33N 31°13' E 121°48'1211.8
2015-Aug-02 03:33N 31°06' E 121°59'1211.8
2015-Aug-02 02:33N 31°03' E 122°13'9 8.9
2015-Aug-02 01:34N 31°02' E 122°23'8 7.8
2015-Aug-02 00:33N 30°60' E 122°32'8 8.4
2015-Aug-01 23:34N 30°58' E 122°41'9 9.2
2015-Aug-01 22:33N 30°57' E 122°52'8 8.0
2015-Aug-01 21:33N 30°59' E 123°01'1 1.1
2015-Aug-01 20:33N 30°60' E 123°01'1 0.9
2015-Aug-01 19:33N 31°00' E 122°60'1 0.9
2015-Aug-01 18:33N 31°00' E 122°59'5 4.7
2015-Aug-01 17:33N 30°56' E 122°57'1212.1
2015-Aug-01 16:33N 30°44' E 122°58'1312.9
2015-Aug-01 15:33N 30°31' E 123°03'1312.8
2015-Aug-01 14:33N 30°19' E 123°04'1413.2
2015-Aug-01 13:32N 30°05' E 123°08'1412.5
2015-Aug-01 12:26N 29°52' E 123°05'1312.1
2015-Aug-01 11:23N 29°40' E 123°02'1011.4
2015-Aug-01 10:32N 29°31' E 122°58'1511.2
2015-Aug-01 09:12N 29°16' E 122°56'4311.6
2015-Aug-01 05:29N 28°35' E 122°41'21812.0
2015-Jul-31 11:17N 25°28' E 120°34'2412.7
2015-Jul-31 09:26N 25°12' E 120°15'1414.0
2015-Jul-31 08:27N 25°02' E 120°04'1314.1
2015-Jul-31 07:32N 24°54' E 119°53'1313.5
2015-Jul-31 06:32N 24°44' E 119°43'1312.9
2015-Jul-31 05:32N 24°36' E 119°32'1212.2
2015-Jul-31 04:33N 24°27' E 119°22'1411.8
2015-Jul-31 03:23N 24°18' E 119°11'4912.6
2015-Jul-30 23:31N 23°46' E 118°30'  
2015-Jul-28 12:27N 21°35' E 108°20'  

Dump ship's entire track history